Disclaimer

Please do not use the information listed here in-flight or in-navigation, as they are not provided to us by the airports but are provided by volunteers, so they might be outdated.

Search


Regions


Airport information page

No radio frequency information is available.

Airport informations:
Latitude: 09° 31' 05.40" N
Longitude: 044° 05' 19.53" E
Elevation: 4423 feet - 1348 meters
Operating hours: Remarks
Operating agency: Civil government, landing fees and diplomatic clearance may be required
Timezone: UTC+3
Fuel: Jet A1, without icing nhibitor.

Runway information:
06/24 - 8000 x 148 feet< - >2438 x 45 meters

Recent METARs:
HCMH 130400Z 34008KT 2000 BR FEW015 16/15 Q1023

Airport on the map: